Time,TemperatureF,DewpointF,PressureIn,WindDirection,WindDirectionDegrees,WindSpeedMPH,WindSpeedGustMPH,Humidity,HourlyPrecipIn,Conditions,Clouds,dailyrainin,SoftwareType,DateUTC
2013-02-05 00:01:00,11.0,5.0,-100.00,South,185,14.0,16.0,78,0.00,,,-99.99,,2013-02-05 07:01:00,
2013-02-05 00:11:00,11.0,6.0,-100.00,South,180,11.0,16.0,78,0.00,,,-99.99,,2013-02-05 07:11:00,
2013-02-05 00:22:00,12.0,6.0,-100.00,SSE,165,12.0,14.0,79,0.00,,,-99.99,,2013-02-05 07:22:00,
2013-02-05 00:32:00,11.0,6.0,-100.00,South,185,11.0,16.0,78,0.00,,,-99.99,,2013-02-05 07:32:00,
2013-02-05 00:41:00,11.0,6.0,-100.00,SSW,195,9.0,13.0,79,0.00,,,-99.99,,2013-02-05 07:41:00,
2013-02-05 00:51:00,12.0,7.0,-100.00,South,180,11.0,13.0,79,0.00,,,-99.99,,2013-02-05 07:51:00,
2013-02-05 01:01:00,12.0,7.0,-100.00,South,180,11.0,13.0,79,0.00,,,-99.99,,2013-02-05 08:01:00,
2013-02-05 01:11:00,12.0,6.0,-100.00,South,185,10.0,14.0,78,0.00,,,-99.99,,2013-02-05 08:11:00,
2013-02-05 01:21:00,13.0,7.0,-100.00,South,185,13.0,15.0,76,0.00,,,-99.99,,2013-02-05 08:21:00,
2013-02-05 01:31:00,13.0,6.0,-100.00,South,175,15.0,16.0,75,0.00,,,-99.99,,2013-02-05 08:31:00,
2013-02-05 01:41:00,13.0,6.0,-100.00,SSE,160,15.0,17.0,74,0.00,,,-99.99,,2013-02-05 08:41:00,
2013-02-05 01:52:00,12.0,6.0,-100.00,South,170,14.0,16.0,75,0.00,,,-99.99,,2013-02-05 08:52:00,
2013-02-05 02:02:00,12.0,6.0,-100.00,SSE,155,17.0,19.0,74,0.00,,,-99.99,,2013-02-05 09:02:00,
2013-02-05 02:11:00,12.0,6.0,-100.00,South,180,12.0,19.0,74,0.00,,,-99.99,,2013-02-05 09:11:00,
2013-02-05 02:21:00,13.0,6.0,-100.00,SE,145,9.0,16.0,72,0.00,,,-99.99,,2013-02-05 09:21:00,
2013-02-05 02:32:00,14.0,6.0,-100.00,SE,145,11.0,17.0,71,0.00,,,-99.99,,2013-02-05 09:32:00,
2013-02-05 02:42:00,14.0,6.0,-100.00,SSE,165,11.0,18.0,70,0.00,,,-99.99,,2013-02-05 09:42:00,
2013-02-05 02:52:00,13.0,6.0,-100.00,South,185,7.0,15.0,72,0.00,,,-99.99,,2013-02-05 09:52:00,
2013-02-05 03:02:00,13.0,6.0,-100.00,SE,140,8.0,12.0,72,0.00,,,-99.99,,2013-02-05 10:02:00,
2013-02-05 03:11:00,15.0,5.0,-100.00,SE,145,6.0,12.0,64,0.00,,,-99.99,,2013-02-05 10:11:00,
2013-02-05 03:21:00,17.0,7.0,-100.00,WSW,250,4.0,7.0,63,0.00,,,-99.99,,2013-02-05 10:21:00,
2013-02-05 03:32:00,12.0,4.0,-100.00,South,170,6.0,9.0,70,0.00,,,-99.99,,2013-02-05 10:32:00,
2013-02-05 03:42:00,12.0,5.0,-100.00,SSE,155,5.0,7.0,71,0.00,,,-99.99,,2013-02-05 10:42:00,
2013-02-05 03:52:00,13.0,5.0,-100.00,South,170,4.0,8.0,71,0.00,,,-99.99,,2013-02-05 10:52:00,
2013-02-05 04:01:00,13.0,5.0,-100.00,SSE,165,5.0,9.0,71,0.00,,,-99.99,,2013-02-05 11:01:00,
2013-02-05 04:11:00,15.0,6.0,-100.00,SSE,165,4.0,15.0,68,0.00,,,-99.99,,2013-02-05 11:11:00,
2013-02-05 04:22:00,17.0,7.0,-100.00,ESE,115,4.0,6.0,63,0.00,,,-99.99,,2013-02-05 11:22:00,
2013-02-05 04:32:00,16.0,6.0,-100.00,ESE,105,4.0,7.0,64,0.00,,,-99.99,,2013-02-05 11:32:00,
2013-02-05 04:42:00,15.0,5.0,-100.00,ENE,60,2.0,6.0,65,0.00,,,-99.99,,2013-02-05 11:42:00,
2013-02-05 04:52:00,18.0,6.0,-100.00,NE,45,3.0,8.0,60,0.00,,,-99.99,,2013-02-05 11:52:00,
2013-02-05 05:01:00,19.0,6.0,-100.00,NE,55,4.0,11.0,57,0.00,,,-99.99,,2013-02-05 12:01:00,
2013-02-05 05:12:00,19.0,6.0,-100.00,NE,50,6.0,9.0,56,0.00,,,-99.99,,2013-02-05 12:12:00,
2013-02-05 05:21:00,18.0,5.0,-100.00,North,10,1.0,9.0,55,0.00,,,-99.99,,2013-02-05 12:21:00,
2013-02-05 05:32:00,18.0,5.0,-100.00,NNE,15,5.0,11.0,56,0.00,,,-99.99,,2013-02-05 12:32:00,
2013-02-05 05:42:00,18.0,5.0,-100.00,NE,50,2.0,7.0,54,0.00,,,-99.99,,2013-02-05 12:42:00,
2013-02-05 05:52:00,18.0,5.0,-100.00,East,85,4.0,8.0,55,0.00,,,-99.99,,2013-02-05 12:52:00,
2013-02-05 06:01:00,18.0,5.0,-100.00,NE,50,2.0,6.0,56,0.00,,,-99.99,,2013-02-05 13:01:00,
2013-02-05 06:12:00,18.0,5.0,-100.00,NE,40,4.0,12.0,56,0.00,,,-99.99,,2013-02-05 13:12:00,
2013-02-05 06:22:00,18.0,5.0,-100.00,NE,40,4.0,9.0,55,0.00,,,-99.99,,2013-02-05 13:22:00,
2013-02-05 06:32:00,17.0,4.0,-100.00,ESE,105,4.0,7.0,54,0.00,,,-99.99,,2013-02-05 13:32:00,
2013-02-05 06:42:00,16.0,3.0,-100.00,SE,145,2.0,7.0,56,0.00,,,-99.99,,2013-02-05 13:42:00,
2013-02-05 06:51:00,16.0,4.0,-100.00,East,80,1.0,9.0,57,0.00,,,-99.99,,2013-02-05 13:51:00,
2013-02-05 07:01:00,16.0,4.0,-100.00,East,100,3.0,7.0,57,0.00,,,-99.99,,2013-02-05 14:01:00,
2013-02-05 07:12:00,16.0,4.0,-100.00,East,100,4.0,9.0,57,0.00,,,-99.99,,2013-02-05 14:12:00,
2013-02-05 07:21:00,16.0,4.0,-100.00,ESE,120,4.0,11.0,58,0.00,,,-99.99,,2013-02-05 14:21:00,
2013-02-05 07:32:00,16.0,4.0,-100.00,SSE,160,4.0,9.0,58,0.00,,,-99.99,,2013-02-05 14:32:00,
2013-02-05 07:42:00,17.0,4.0,-100.00,ENE,60,3.0,7.0,58,0.00,,,-99.99,,2013-02-05 14:42:00,
2013-02-05 07:52:00,16.0,4.0,-100.00,NE,40,4.0,7.0,59,0.00,,,-99.99,,2013-02-05 14:52:00,
2013-02-05 08:02:00,16.0,4.0,-100.00,NE,40,7.0,14.0,59,0.00,,,-99.99,,2013-02-05 15:02:00,
2013-02-05 08:11:00,15.0,4.0,-100.00,NE,55,4.0,7.0,61,0.00,,,-99.99,,2013-02-05 15:11:00,
2013-02-05 08:21:00,16.0,4.0,-100.00,NE,55,2.0,7.0,58,0.00,,,-99.99,,2013-02-05 15:21:00,
2013-02-05 08:32:00,16.0,4.0,-100.00,North,10,2.0,7.0,58,0.00,,,-99.99,,2013-02-05 15:32:00,
2013-02-05 08:41:00,17.0,5.0,-100.00,SW,230,2.0,7.0,58,0.00,,,-99.99,,2013-02-05 15:41:00,
2013-02-05 08:52:00,17.0,5.0,-100.00,SSE,160,5.0,9.0,57,0.00,,,-99.99,,2013-02-05 15:52:00,
2013-02-05 09:01:00,17.0,5.0,-100.00,SSE,165,10.0,12.0,57,0.00,,,-99.99,,2013-02-05 16:01:00,
2013-02-05 09:11:00,18.0,6.0,-100.00,SSE,165,11.0,16.0,57,0.00,,,-99.99,,2013-02-05 16:11:00,
2013-02-05 09:22:00,18.0,6.0,-100.00,South,175,13.0,16.0,56,0.00,,,-99.99,,2013-02-05 16:22:00,
2013-02-05 09:32:00,19.0,6.0,-100.00,South,175,12.0,22.0,56,0.00,,,-99.99,,2013-02-05 16:32:00,
2013-02-05 09:42:00,19.0,6.0,-100.00,South,175,11.0,16.0,54,0.00,,,-99.99,,2013-02-05 16:42:00,
2013-02-05 09:52:00,18.0,5.0,-100.00,SSE,155,12.0,17.0,55,0.00,,,-99.99,,2013-02-05 16:52:00,
2013-02-05 10:01:00,20.0,6.0,-100.00,South,180,11.0,14.0,54,0.00,,,-99.99,,2013-02-05 17:01:00,
2013-02-05 10:11:00,20.0,6.0,-100.00,South,170,12.0,17.0,54,0.00,,,-99.99,,2013-02-05 17:11:00,
2013-02-05 10:21:00,21.0,7.0,-100.00,South,180,10.0,18.0,53,0.00,,,-99.99,,2013-02-05 17:21:00,
2013-02-05 10:32:00,22.0,7.0,-100.00,South,185,7.0,14.0,52,0.00,,,-99.99,,2013-02-05 17:32:00,
2013-02-05 10:42:00,22.0,7.0,-100.00,SSE,160,4.0,14.0,51,0.00,,,-99.99,,2013-02-05 17:42:00,
2013-02-05 10:52:00,24.0,8.0,-100.00,SSE,160,6.0,9.0,49,0.00,,,-99.99,,2013-02-05 17:52:00,
2013-02-05 11:02:00,25.0,8.0,-100.00,SSE,160,8.0,12.0,49,0.00,,,-99.99,,2013-02-05 18:02:00,
2013-02-05 11:11:00,26.0,9.0,-100.00,SSE,150,5.0,10.0,48,0.00,,,-99.99,,2013-02-05 18:11:00,
2013-02-05 11:21:00,27.0,9.0,-100.00,SE,145,5.0,9.0,46,0.00,,,-99.99,,2013-02-05 18:21:00,
2013-02-05 11:32:00,27.0,9.0,-100.00,South,175,7.0,11.0,45,0.00,,,-99.99,,2013-02-05 18:32:00,
2013-02-05 11:42:00,27.0,8.0,-100.00,SSE,150,9.0,12.0,45,0.00,,,-99.99,,2013-02-05 18:42:00,
2013-02-05 11:52:00,27.0,8.0,-100.00,South,190,11.0,12.0,44,0.00,,,-99.99,,2013-02-05 18:52:00,
2013-02-05 12:02:00,28.0,9.0,-100.00,SSE,165,9.0,12.0,44,0.00,,,-99.99,,2013-02-05 19:02:00,
2013-02-05 12:11:00,28.0,9.0,-100.00,South,175,11.0,14.0,44,0.00,,,-99.99,,2013-02-05 19:11:00,
2013-02-05 12:21:00,28.0,9.0,-100.00,SSE,160,9.0,14.0,43,0.00,,,-99.99,,2013-02-05 19:21:00,
2013-02-05 12:32:00,29.0,9.0,-100.00,South,170,8.0,11.0,42,0.00,,,-99.99,,2013-02-05 19:32:00,
2013-02-05 12:42:00,29.0,9.0,-100.00,South,170,10.0,12.0,42,0.00,,,-99.99,,2013-02-05 19:42:00,
2013-02-05 12:52:00,30.0,9.0,-100.00,SSE,165,9.0,13.0,41,0.00,,,-99.99,,2013-02-05 19:52:00,
2013-02-05 13:01:00,30.0,10.0,-100.00,South,185,9.0,12.0,41,0.00,,,-99.99,,2013-02-05 20:01:00,
2013-02-05 13:11:00,30.0,10.0,-100.00,South,170,6.0,11.0,41,0.00,,,-99.99,,2013-02-05 20:11:00,
2013-02-05 13:21:00,30.0,10.0,-100.00,South,170,7.0,11.0,42,0.00,,,-99.99,,2013-02-05 20:21:00,
2013-02-05 13:32:00,29.0,9.0,-100.00,South,180,11.0,13.0,42,0.00,,,-99.99,,2013-02-05 20:32:00,
2013-02-05 13:42:00,29.0,9.0,-100.00,SSE,160,11.0,17.0,42,0.00,,,-99.99,,2013-02-05 20:42:00,
2013-02-05 13:52:00,30.0,10.0,-100.00,SSE,165,8.0,15.0,42,0.00,,,-99.99,,2013-02-05 20:52:00,
2013-02-05 14:02:00,30.0,10.0,-100.00,SSE,160,11.0,15.0,42,0.00,,,-99.99,,2013-02-05 21:02:00,
2013-02-05 14:11:00,31.0,10.0,-100.00,SSE,160,11.0,15.0,41,0.00,,,-99.99,,2013-02-05 21:11:00,
2013-02-05 14:22:00,31.0,10.0,-100.00,SSE,160,10.0,14.0,41,0.00,,,-99.99,,2013-02-05 21:22:00,
2013-02-05 14:32:00,31.0,10.0,-100.00,SSE,160,9.0,16.0,41,0.00,,,-99.99,,2013-02-05 21:32:00,
2013-02-05 14:42:00,31.0,10.0,-100.00,South,180,7.0,15.0,40,0.00,,,-99.99,,2013-02-05 21:42:00,
2013-02-05 14:51:00,31.0,10.0,-100.00,South,175,7.0,14.0,40,0.00,,,-99.99,,2013-02-05 21:51:00,
2013-02-05 15:01:00,31.0,10.0,-100.00,South,170,8.0,13.0,39,0.00,,,-99.99,,2013-02-05 22:01:00,
2013-02-05 15:11:00,31.0,9.0,-100.00,SSE,160,6.0,13.0,39,0.00,,,-99.99,,2013-02-05 22:11:00,
2013-02-05 15:21:00,31.0,9.0,-100.00,SSE,150,9.0,14.0,39,0.00,,,-99.99,,2013-02-05 22:21:00,
2013-02-05 15:32:00,31.0,10.0,-100.00,South,180,6.0,12.0,39,0.00,,,-99.99,,2013-02-05 22:32:00,
2013-02-05 15:42:00,30.0,9.0,-100.00,SSE,165,5.0,9.0,40,0.00,,,-99.99,,2013-02-05 22:42:00,
2013-02-05 15:52:00,30.0,9.0,-100.00,SSE,165,5.0,9.0,40,0.00,,,-99.99,,2013-02-05 22:52:00,
2013-02-05 16:02:00,29.0,9.0,-100.00,SSE,155,4.0,10.0,42,0.00,,,-99.99,,2013-02-05 23:02:00,
2013-02-05 16:11:00,28.0,8.0,-100.00,SSE,160,6.0,11.0,42,0.00,,,-99.99,,2013-02-05 23:11:00,
2013-02-05 16:21:00,28.0,8.0,-100.00,South,180,7.0,12.0,43,0.00,,,-99.99,,2013-02-05 23:21:00,
2013-02-05 16:32:00,28.0,8.0,-100.00,South,180,7.0,10.0,43,0.00,,,-99.99,,2013-02-05 23:32:00,
2013-02-05 16:42:00,28.0,8.0,-100.00,SSW,195,6.0,9.0,43,0.00,,,-99.99,,2013-02-05 23:42:00,
2013-02-05 16:52:00,27.0,8.0,-100.00,South,185,6.0,7.0,44,0.00,,,-99.99,,2013-02-05 23:52:00,
2013-02-05 17:02:00,26.0,8.0,-100.00,South,175,4.0,7.0,45,0.00,,,-99.99,,2013-02-06 00:02:00,
2013-02-05 17:11:00,26.0,8.0,-100.00,SW,215,3.0,6.0,46,0.00,,,-99.99,,2013-02-06 00:11:00,
2013-02-05 17:22:00,26.0,8.0,-100.00,South,185,4.0,6.0,46,0.00,,,-99.99,,2013-02-06 00:22:00,
2013-02-05 17:32:00,25.0,8.0,-100.00,SSW,210,3.0,6.0,47,0.00,,,-99.99,,2013-02-06 00:32:00,
2013-02-05 17:42:00,24.0,8.0,-100.00,South,175,1.0,4.0,48,0.00,,,-99.99,,2013-02-06 00:42:00,
2013-02-05 17:52:00,24.0,7.0,-100.00,ESE,110,1.0,2.0,47,0.00,,,-99.99,,2013-02-06 00:52:00,
2013-02-05 18:02:00,25.0,7.0,-100.00,ENE,70,2.0,4.0,46,0.00,,,-99.99,,2013-02-06 01:02:00,
2013-02-05 18:11:00,25.0,7.0,-100.00,East,100,3.0,6.0,45,0.00,,,-99.99,,2013-02-06 01:11:00,
2013-02-05 18:22:00,24.0,7.0,-100.00,South,185,4.0,4.0,47,0.00,,,-99.99,,2013-02-06 01:22:00,
2013-02-05 18:32:00,24.0,7.0,-100.00,South,185,5.0,6.0,47,0.00,,,-99.99,,2013-02-06 01:32:00,
2013-02-05 18:42:00,22.0,7.0,-100.00,South,175,5.0,7.0,50,0.00,,,-99.99,,2013-02-06 01:42:00,
2013-02-05 18:52:00,22.0,7.0,-100.00,South,185,4.0,6.0,50,0.00,,,-99.99,,2013-02-06 01:52:00,
2013-02-05 19:01:00,23.0,7.0,-100.00,SSW,205,2.0,6.0,48,0.00,,,-99.99,,2013-02-06 02:01:00,
2013-02-05 19:11:00,23.0,7.0,-100.00,SSE,155,2.0,6.0,49,0.00,,,-99.99,,2013-02-06 02:11:00,
2013-02-05 19:22:00,22.0,6.0,-100.00,SW,215,2.0,4.0,49,0.00,,,-99.99,,2013-02-06 02:22:00,
2013-02-05 19:32:00,23.0,7.0,-100.00,SSE,165,2.0,4.0,49,0.00,,,-99.99,,2013-02-06 02:32:00,
2013-02-05 19:42:00,23.0,7.0,-100.00,NE,35,2.0,5.0,49,0.00,,,-99.99,,2013-02-06 02:42:00,
2013-02-05 19:52:00,22.0,6.0,-100.00,ESE,105,1.0,3.0,50,0.00,,,-99.99,,2013-02-06 02:52:00,
2013-02-05 20:02:00,23.0,7.0,-100.00,ESE,115,1.0,6.0,49,0.00,,,-99.99,,2013-02-06 03:02:00,
2013-02-05 20:12:00,22.0,7.0,-100.00,SSE,165,1.0,5.0,50,0.00,,,-99.99,,2013-02-06 03:12:00,
2013-02-05 20:22:00,21.0,7.0,-100.00,SSW,200,0.0,2.0,52,0.00,,,-99.99,,2013-02-06 03:22:00,
2013-02-05 20:32:00,22.0,7.0,-100.00,South,190,4.0,6.0,52,0.00,,,-99.99,,2013-02-06 03:32:00,
2013-02-05 20:42:00,22.0,7.0,-100.00,SSW,200,3.0,7.0,50,0.00,,,-99.99,,2013-02-06 03:42:00,
2013-02-05 20:53:00,22.0,6.0,-100.00,SSE,160,3.0,5.0,50,0.00,,,-99.99,,2013-02-06 03:53:00,
2013-02-05 21:02:00,22.0,7.0,-100.00,South,170,2.0,5.0,50,0.00,,,-99.99,,2013-02-06 04:02:00,
2013-02-05 21:11:00,22.0,6.0,-100.00,WSW,240,2.0,4.0,50,0.00,,,-99.99,,2013-02-06 04:11:00,
2013-02-05 21:21:00,22.0,6.0,-100.00,SSE,160,3.0,5.0,50,0.00,,,-99.99,,2013-02-06 04:21:00,
2013-02-05 21:32:00,22.0,6.0,-100.00,SSE,165,1.0,5.0,50,0.00,,,-99.99,,2013-02-06 04:32:00,
2013-02-05 21:42:00,21.0,6.0,-100.00,ESE,115,1.0,4.0,50,0.00,,,-99.99,,2013-02-06 04:42:00,
2013-02-05 21:52:00,20.0,5.0,-100.00,South,180,2.0,4.0,50,0.00,,,-99.99,,2013-02-06 04:52:00,
2013-02-05 22:02:00,21.0,5.0,-100.00,South,180,3.0,4.0,51,0.00,,,-99.99,,2013-02-06 05:02:00,
2013-02-05 22:12:00,21.0,6.0,-100.00,SE,130,2.0,4.0,51,0.00,,,-99.99,,2013-02-06 05:12:00,
2013-02-05 22:22:00,20.0,5.0,-100.00,SE,140,2.0,4.0,51,0.00,,,-99.99,,2013-02-06 05:22:00,
2013-02-05 22:32:00,20.0,5.0,-100.00,South,185,2.0,4.0,50,0.00,,,-99.99,,2013-02-06 05:32:00,
2013-02-05 22:41:00,20.0,5.0,-100.00,South,185,2.0,4.0,50,0.00,,,-99.99,,2013-02-06 05:41:00,
2013-02-05 22:52:00,21.0,5.0,-100.00,South,175,4.0,6.0,50,0.00,,,-99.99,,2013-02-06 05:52:00,
2013-02-05 23:01:00,21.0,5.0,-100.00,SSW,210,5.0,7.0,49,0.00,,,-99.99,,2013-02-06 06:01:00,
2013-02-05 23:11:00,20.0,5.0,-100.00,SSW,205,4.0,7.0,50,0.00,,,-99.99,,2013-02-06 06:11:00,
2013-02-05 23:21:00,20.0,4.0,-100.00,SSW,210,4.0,7.0,50,0.00,,,-99.99,,2013-02-06 06:21:00,
2013-02-05 23:32:00,20.0,5.0,-100.00,South,190,7.0,9.0,51,0.00,,,-99.99,,2013-02-06 06:32:00,
2013-02-05 23:42:00,19.0,4.0,-100.00,SSE,160,6.0,10.0,52,0.00,,,-99.99,,2013-02-06 06:42:00,
2013-02-05 23:51:00,21.0,5.0,-100.00,SSE,165,9.0,12.0,48,0.00,,,-99.99,,2013-02-06 06:51:00,